Time;durP1;ratioP1;P1;durP2;ratioP2;P2;SDS_P1;SDS_P2;PMS_P1;PMS_P2;Temp;Humidity;BMP_temperature;BMP_pressure;BME280_temperature;BME280_humidity;BME280_pressure;Samples;Min_cycle;Max_cycle;Signal;HPM_P1;HPM_P2
2022/01/22 00:02:06;;;;;;;10.30;2.97;;;6.10;99.90;;;;;;5062959;28;20209;-73
2022/01/22 00:04:33;;;;;;;6.10;3.27;;;6.10;99.90;;;;;;5058087;28;20222;-74
2022/01/22 00:07:02;;;;;;;8.63;2.77;;;6.10;99.90;;;;;;5065962;28;20679;-73
2022/01/22 00:09:51;;;;;;;5.80;2.70;;;6.10;99.90;;;;;;5053913;28;20267;-73
2022/01/22 00:12:42;;;;;;;4.10;2.67;;;6.00;99.90;;;;;;5074755;28;20194;-73
2022/01/22 00:15:12;;;;;;;13.83;3.20;;;5.90;99.90;;;;;;5066839;28;20218;-74
2022/01/22 00:17:40;;;;;;;13.57;3.00;;;6.00;99.90;;;;;;5055722;28;20209;-73
2022/01/22 00:20:08;;;;;;;5.23;2.87;;;5.90;99.90;;;;;;5064184;28;20201;-73
2022/01/22 00:22:36;;;;;;;8.63;2.83;;;5.90;99.90;;;;;;5061784;28;20425;-73
2022/01/22 00:25:08;;;;;;;4.80;2.30;;;5.90;99.90;;;;;;5057619;28;20226;-74
2022/01/22 00:27:38;;;;;;;5.23;2.30;;;5.90;99.90;;;;;;5059747;28;20200;-73
2022/01/22 00:30:12;;;;;;;7.23;2.40;;;5.80;99.90;;;;;;5056275;28;20196;-73
2022/01/22 00:32:39;;;;;;;5.53;2.50;;;5.80;99.90;;;;;;5064261;28;20200;-72
2022/01/22 00:35:06;;;;;;;6.07;2.27;;;5.80;99.90;;;;;;5065233;28;20232;-74
2022/01/22 00:37:35;;;;;;;5.07;2.40;;;5.80;99.90;;;;;;5063506;28;20201;-73
2022/01/22 00:40:03;;;;;;;5.40;2.67;;;5.80;99.90;;;;;;5067891;28;20569;-73
2022/01/22 00:42:33;;;;;;;6.77;2.70;;;5.70;99.90;;;;;;5067734;28;20680;-73
2022/01/22 00:45:00;;;;;;;7.43;2.63;;;5.80;99.90;;;;;;5067647;28;20225;-74
2022/01/22 00:47:27;;;;;;;6.80;2.83;;;5.80;99.90;;;;;;5084239;28;20217;-73
2022/01/22 00:49:53;;;;;;;5.43;2.23;;;5.80;99.90;;;;;;5068114;28;20190;-73
2022/01/22 00:52:20;;;;;;;9.33;2.70;;;5.80;99.90;;;;;;5063810;28;20204;-74
2022/01/22 00:54:47;;;;;;;6.93;2.60;;;5.90;99.90;;;;;;5066034;28;20228;-74
2022/01/22 00:57:13;;;;;;;6.23;3.00;;;5.80;99.90;;;;;;5061536;28;20208;-74
2022/01/22 00:59:40;;;;;;;6.40;2.70;;;5.80;99.90;;;;;;5061805;28;20455;-71
2022/01/22 01:02:07;;;;;;;4.47;2.60;;;5.90;99.90;;;;;;5065455;28;20233;-72
2022/01/22 01:04:36;;;;;;;6.60;2.60;;;5.90;99.90;;;;;;5068181;28;20224;-72
2022/01/22 01:07:05;;;;;;;5.80;3.37;;;5.90;99.90;;;;;;5060841;28;20583;-71
2022/01/22 01:09:33;;;;;;;5.47;2.70;;;5.80;99.90;;;;;;5062871;28;20206;-72
2022/01/22 01:12:03;;;;;;;10.17;2.67;;;5.60;99.90;;;;;;5063108;28;20691;-71
2022/01/22 01:14:37;;;;;;;4.17;2.60;;;5.70;99.90;;;;;;5067754;28;20223;-71
2022/01/22 01:33:50;;;;;;;8.23;2.87;;;5.80;99.90;;;;;;5066603;28;20194;-72
2022/01/22 01:36:14;;;;;;;5.00;3.10;;;5.80;99.90;;;;;;5057906;28;20208;-72
2022/01/22 01:38:48;;;;;;;7.67;2.97;;;5.90;99.90;;;;;;5066518;28;20213;-72
2022/01/22 01:41:26;;;;;;;8.30;3.10;;;5.90;99.90;;;;;;5061850;28;20194;-72
2022/01/22 01:43:53;;;;;;;10.23;3.07;;;5.70;99.90;;;;;;5065592;28;20227;-71
2022/01/22 01:46:20;;;;;;;4.93;2.60;;;5.80;99.90;;;;;;5063681;28;20225;-72
2022/01/22 01:48:49;;;;;;;6.47;3.03;;;5.80;99.90;;;;;;5071523;28;20190;-73
2022/01/22 01:51:15;;;;;;;9.50;3.90;;;5.80;99.90;;;;;;5064894;28;20532;-73
2022/01/22 01:53:52;;;;;;;4.60;2.93;;;5.80;99.90;;;;;;5066732;28;20222;-73
2022/01/22 01:59:04;;;;;;;8.13;3.00;;;5.70;99.90;;;;;;5064026;28;20201;-75
2022/01/22 02:01:31;;;;;;;7.00;2.93;;;5.80;99.90;;;;;;5076178;28;20202;-73
2022/01/22 02:03:57;;;;;;;4.70;3.03;;;5.80;99.90;;;;;;5061574;28;20222;-74
2022/01/22 02:06:24;;;;;;;4.83;3.07;;;5.80;99.90;;;;;;5065705;28;20637;-74
2022/01/22 02:08:53;;;;;;;6.47;3.20;;;5.70;99.90;;;;;;5068566;28;20190;-73
2022/01/22 02:11:23;;;;;;;8.00;3.10;;;5.70;99.90;;;;;;5059541;28;20209;-74
2022/01/22 02:24:56;;;;;;;8.30;3.00;;;5.90;99.90;;;;;;5071037;28;20222;-73
2022/01/22 02:27:23;;;;;;;4.67;3.30;;;5.90;99.90;;;;;;5061996;28;20190;-75
2022/01/22 02:29:50;;;;;;;7.13;3.07;;;5.90;99.90;;;;;;5066935;28;20205;-72
2022/01/22 02:35:23;;;;;;;7.60;3.33;;;5.90;99.90;;;;;;5062534;28;20233;-71
2022/01/22 02:37:57;;;;;;;9.13;3.53;;;5.90;99.90;;;;;;5064948;28;20206;-72
2022/01/22 02:40:32;;;;;;;7.23;3.37;;;5.80;99.90;;;;;;5069387;28;20198;-72
2022/01/22 02:43:00;;;;;;;8.03;3.27;;;5.90;99.90;;;;;;5066885;28;20202;-72
2022/01/22 02:45:27;;;;;;;8.77;3.43;;;5.70;99.90;;;;;;5066197;28;20456;-72
2022/01/22 02:47:54;;;;;;;7.00;3.50;;;5.70;99.90;;;;;;5065453;28;20212;-72
2022/01/22 02:50:21;;;;;;;6.13;3.27;;;5.70;99.90;;;;;;5066800;28;20210;-72
2022/01/22 02:52:48;;;;;;;6.47;3.43;;;5.70;99.90;;;;;;5066284;28;20574;-72
2022/01/22 02:55:15;;;;;;;9.07;3.63;;;5.70;99.90;;;;;;5068886;28;20229;-72
2022/01/22 02:57:44;;;;;;;7.20;3.50;;;5.70;99.90;;;;;;5065140;28;20705;-72
2022/01/22 03:00:16;;;;;;;6.73;3.60;;;5.70;99.90;;;;;;5067135;28;20672;-74
2022/01/22 03:02:43;;;;;;;7.10;3.63;;;5.70;99.90;;;;;;5064786;28;20190;-73
2022/01/22 03:05:10;;;;;;;7.03;3.27;;;5.80;99.90;;;;;;5058684;28;20299;-73
2022/01/22 03:07:39;;;;;;;5.43;2.83;;;5.80;99.90;;;;;;5061677;28;20199;-74
2022/01/22 03:10:07;;;;;;;5.23;2.80;;;5.70;99.90;;;;;;5059693;28;20570;-73
2022/01/22 03:20:37;;;;;;;8.77;2.97;;;5.80;99.90;;;;;;5054811;28;20740;-73
2022/01/22 03:23:09;;;;;;;9.57;3.60;;;5.80;99.90;;;;;;5062112;28;20194;-74
2022/01/22 03:28:25;;;;;;;9.83;3.57;;;5.80;99.90;;;;;;5061060;28;20209;-74
2022/01/22 03:30:52;;;;;;;5.80;3.27;;;5.90;99.90;;;;;;5065662;28;20574;-72
2022/01/22 03:33:22;;;;;;;5.53;3.47;;;5.80;99.90;;;;;;5061217;28;20205;-72
2022/01/22 03:35:55;;;;;;;9.67;3.40;;;5.80;99.90;;;;;;5062243;28;20201;-73
2022/01/22 03:38:23;;;;;;;12.60;3.70;;;5.70;99.90;;;;;;5065869;28;20203;-74
2022/01/22 03:40:50;;;;;;;6.53;3.37;;;5.90;99.90;;;;;;5064807;28;20194;-74
2022/01/22 03:43:18;;;;;;;5.23;3.60;;;5.80;99.90;;;;;;5062012;28;20610;-74
2022/01/22 03:45:45;;;;;;;6.97;3.47;;;5.80;99.90;;;;;;5065882;28;20221;-71
2022/01/22 03:48:12;;;;;;;9.43;3.40;;;5.90;99.90;;;;;;5067403;28;20576;-72
2022/01/22 03:50:39;;;;;;;5.83;3.50;;;5.90;99.90;;;;;;5064377;28;20201;-73
2022/01/22 03:53:05;;;;;;;6.73;3.47;;;5.90;99.90;;;;;;5058933;28;20206;-73
2022/01/22 03:55:50;;;;;;;4.00;2.90;;;5.80;99.90;;;;;;5060054;28;20209;-74
2022/01/22 03:58:17;;;;;;;6.73;3.17;;;5.80;99.90;;;;;;5053571;28;20328;-72
2022/01/22 04:00:44;;;;;;;7.00;3.67;;;5.90;99.90;;;;;;5056986;28;20687;-73
2022/01/22 04:03:29;;;;;;;4.43;2.90;;;5.80;99.90;;;;;;5065851;28;20690;-73
2022/01/22 04:06:29;;;;;;;5.30;3.27;;;5.90;99.90;;;;;;5060051;28;20257;-73
2022/01/22 04:08:53;;;;;;;4.73;3.17;;;5.90;99.90;;;;;;5063238;28;20197;-74
2022/01/22 04:11:20;;;;;;;5.70;3.33;;;5.90;99.90;;;;;;5074834;28;20205;-73
2022/01/22 04:13:50;;;;;;;6.57;3.20;;;5.90;99.90;;;;;;5063822;28;20225;-73
2022/01/22 04:16:17;;;;;;;6.43;3.13;;;5.90;99.90;;;;;;5076636;28;20683;-74
2022/01/22 04:27:15;;;;;;;4.77;3.00;;;5.80;99.90;;;;;;5060910;28;20226;-72
2022/01/22 04:29:42;;;;;;;10.17;3.10;;;5.80;99.90;;;;;;5063037;28;20667;-71
2022/01/22 04:32:08;;;;;;;5.03;2.80;;;5.90;99.90;;;;;;5074648;28;20206;-71
2022/01/22 04:34:35;;;;;;;4.07;3.10;;;6.00;99.90;;;;;;5062145;28;20704;-71
2022/01/22 04:37:03;;;;;;;6.63;2.97;;;5.90;99.90;;;;;;5065464;28;20206;-73
2022/01/22 04:39:29;;;;;;;5.93;3.30;;;5.90;99.90;;;;;;5064298;28;20199;-73
2022/01/22 04:41:57;;;;;;;4.93;3.27;;;5.90;99.90;;;;;;5061975;28;20198;-73
2022/01/22 04:44:27;;;;;;;5.17;3.27;;;5.80;99.90;;;;;;5063829;28;21637;-73
2022/01/22 04:54:59;;;;;;;6.10;3.30;;;5.80;99.90;;;;;;5067612;28;20218;-74
2022/01/22 04:57:31;;;;;;;5.53;3.30;;;5.80;99.90;;;;;;5062286;28;20191;-73
2022/01/22 04:59:58;;;;;;;4.47;2.93;;;5.80;99.90;;;;;;5064504;28;20208;-74
2022/01/22 05:02:25;;;;;;;5.00;3.03;;;5.80;99.90;;;;;;5063713;28;20202;-73
2022/01/22 05:04:52;;;;;;;3.93;2.93;;;5.70;99.90;;;;;;5077331;28;20307;-74
2022/01/22 05:07:18;;;;;;;4.33;3.03;;;5.70;99.90;;;;;;5058089;28;20641;-72
2022/01/22 05:09:45;;;;;;;4.63;2.97;;;5.80;99.90;;;;;;5059075;28;20198;-72
2022/01/22 05:12:12;;;;;;;6.43;3.33;;;5.80;99.90;;;;;;5059814;28;20198;-72
2022/01/22 05:14:39;;;;;;;5.83;2.97;;;5.90;99.90;;;;;;5065080;28;20654;-74
2022/01/22 05:17:07;;;;;;;4.37;2.90;;;5.90;99.90;;;;;;5051905;28;20210;-73
2022/01/22 05:22:20;;;;;;;4.30;3.00;;;5.90;99.90;;;;;;5065646;28;20932;-71
2022/01/22 05:24:52;;;;;;;4.00;2.93;;;6.00;99.90;;;;;;5070402;28;20241;-71
2022/01/22 05:38:29;;;;;;;5.77;3.40;;;5.80;99.90;;;;;;5066563;28;20569;-73
2022/01/22 05:40:56;;;;;;;7.97;3.57;;;5.80;99.90;;;;;;5064413;28;20646;-72
2022/01/22 05:43:23;;;;;;;5.43;3.50;;;5.70;99.90;;;;;;5068351;28;20221;-74
2022/01/22 05:45:50;;;;;;;4.47;3.23;;;5.70;99.90;;;;;;5064844;28;20570;-73
2022/01/22 05:48:17;;;;;;;4.87;3.43;;;5.70;99.90;;;;;;5063006;28;20753;-73
2022/01/22 05:51:00;;;;;;;5.30;3.53;;;5.90;99.90;;;;;;5068644;28;20201;-73
2022/01/22 06:01:43;;;;;;;7.37;3.90;;;5.80;99.90;;;;;;5066877;28;20198;-73
2022/01/22 06:04:11;;;;;;;5.57;3.63;;;5.80;99.90;;;;;;5067772;28;20222;-72
2022/01/22 06:06:37;;;;;;;7.97;4.77;;;5.90;99.90;;;;;;5070319;28;20214;-72
2022/01/22 06:09:08;;;;;;;6.10;3.47;;;5.80;99.90;;;;;;5059375;28;20212;-72
2022/01/22 06:11:51;;;;;;;5.60;3.77;;;5.80;99.90;;;;;;5064619;28;20187;-71
2022/01/22 06:14:18;;;;;;;6.17;3.57;;;5.80;99.90;;;;;;5066610;28;20225;-71
2022/01/22 06:16:45;;;;;;;4.43;3.63;;;5.80;99.90;;;;;;5064891;28;20210;-71
2022/01/22 06:19:12;;;;;;;5.40;3.83;;;5.90;99.90;;;;;;5062947;28;20198;-72
2022/01/22 06:21:39;;;;;;;6.13;4.17;;;5.80;99.90;;;;;;5070955;28;20201;-71
2022/01/22 06:24:06;;;;;;;7.47;4.07;;;5.90;99.90;;;;;;5054527;28;20222;-71
2022/01/22 06:26:35;;;;;;;6.13;4.50;;;6.00;99.90;;;;;;5057566;28;20728;-72
2022/01/22 06:29:04;;;;;;;6.87;4.20;;;5.90;99.90;;;;;;5065344;28;20817;-72
2022/01/22 06:31:31;;;;;;;6.73;4.30;;;5.80;99.90;;;;;;5078937;28;20194;-72
2022/01/22 06:34:00;;;;;;;6.53;4.10;;;5.90;99.90;;;;;;5065769;28;20252;-72
2022/01/22 06:36:27;;;;;;;7.80;4.80;;;6.00;99.90;;;;;;5067525;28;20198;-72
2022/01/22 06:39:09;;;;;;;7.40;4.20;;;6.00;99.90;;;;;;5062761;28;20316;-72
2022/01/22 06:41:46;;;;;;;7.03;4.20;;;6.00;99.90;;;;;;5064681;28;20202;-71
2022/01/22 06:44:16;;;;;;;7.53;3.90;;;6.00;99.90;;;;;;5061244;28;20723;-71
2022/01/22 06:46:45;;;;;;;6.47;4.20;;;6.00;99.90;;;;;;5059840;28;20218;-71
2022/01/22 06:49:12;;;;;;;5.87;3.90;;;6.00;99.90;;;;;;5064868;28;20198;-72
2022/01/22 06:51:39;;;;;;;7.73;4.20;;;6.00;99.90;;;;;;5060549;28;20190;-72
2022/01/22 06:54:11;;;;;;;6.67;4.17;;;6.00;99.90;;;;;;5057277;28;20317;-72
2022/01/22 06:56:38;;;;;;;4.43;3.73;;;6.00;99.90;;;;;;5071419;28;20202;-72
2022/01/22 06:59:08;;;;;;;5.53;4.00;;;6.10;99.90;;;;;;5060788;28;20206;-71
2022/01/22 07:01:35;;;;;;;6.60;3.63;;;6.10;99.90;;;;;;5061627;28;20191;-71
2022/01/22 07:04:03;;;;;;;6.20;3.63;;;6.20;99.90;;;;;;5066440;28;20310;-72
2022/01/22 07:06:29;;;;;;;6.97;3.80;;;6.20;99.90;;;;;;5068686;28;20598;-73
2022/01/22 07:08:56;;;;;;;6.70;3.73;;;6.20;99.90;;;;;;5066560;28;20467;-74
2022/01/22 07:11:23;;;;;;;5.43;3.70;;;6.20;99.90;;;;;;5068487;28;20281;-72
2022/01/22 07:13:50;;;;;;;7.53;4.33;;;6.20;99.90;;;;;;5078886;28;20210;-71
2022/01/22 07:16:17;;;;;;;9.03;3.93;;;6.20;99.90;;;;;;5066839;28;20652;-73
2022/01/22 07:18:44;;;;;;;7.70;4.13;;;6.20;99.90;;;;;;5066542;28;20674;-72
2022/01/22 07:21:19;;;;;;;6.90;4.10;;;6.20;99.90;;;;;;5070445;28;20202;-72
2022/01/22 07:26:14;;;;;;;7.50;4.43;;;6.20;99.90;;;;;;5082649;28;20226;-73
2022/01/22 07:28:42;;;;;;;4.47;3.47;;;6.30;99.90;;;;;;5066429;28;20205;-72
2022/01/22 07:31:09;;;;;;;4.87;3.63;;;6.20;99.90;;;;;;5067408;28;20205;-72
2022/01/22 07:33:37;;;;;;;4.90;3.50;;;6.20;99.90;;;;;;5063287;28;20223;-72
2022/01/22 07:36:04;;;;;;;4.77;3.50;;;6.20;99.90;;;;;;5061594;28;20728;-72
2022/01/22 07:38:37;;;;;;;6.33;3.90;;;6.30;99.90;;;;;;5063159;28;20198;-72
2022/01/22 07:41:06;;;;;;;6.00;3.97;;;6.30;99.90;;;;;;5067207;28;20229;-73
2022/01/22 07:43:37;;;;;;;6.10;4.00;;;6.30;99.90;;;;;;5058929;28;20226;-72
2022/01/22 07:46:05;;;;;;;5.40;3.47;;;6.30;99.90;;;;;;5065964;28;20225;-72
2022/01/22 07:48:32;;;;;;;5.87;4.00;;;6.30;99.90;;;;;;5060421;28;20244;-73
2022/01/22 07:50:59;;;;;;;6.57;3.97;;;6.30;99.90;;;;;;5064905;28;20189;-72
2022/01/22 07:53:26;;;;;;;7.20;3.93;;;6.40;99.90;;;;;;5063780;28;20217;-72
2022/01/22 07:55:52;;;;;;;7.60;3.60;;;6.40;99.90;;;;;;5069955;28;20190;-72
2022/01/22 07:58:19;;;;;;;7.70;3.57;;;6.30;99.90;;;;;;5061838;28;20214;-72
2022/01/22 08:00:46;;;;;;;5.83;3.10;;;6.30;99.90;;;;;;5067769;28;20206;-74
2022/01/22 08:03:13;;;;;;;4.67;2.73;;;6.20;99.90;;;;;;5065456;28;20249;-73
2022/01/22 08:05:39;;;;;;;5.00;3.33;;;6.30;99.90;;;;;;5065169;28;20201;-73
2022/01/22 08:08:06;;;;;;;4.13;3.03;;;6.30;99.90;;;;;;5063018;28;20233;-73
2022/01/22 08:10:33;;;;;;;4.93;3.30;;;6.30;99.90;;;;;;5073293;28;20277;-74
2022/01/22 08:12:59;;;;;;;4.57;3.20;;;6.30;99.90;;;;;;5054745;28;20196;-73
2022/01/22 08:15:26;;;;;;;4.10;3.07;;;6.30;99.90;;;;;;5062988;28;20215;-74
2022/01/22 08:17:53;;;;;;;5.73;2.87;;;6.30;99.90;;;;;;5073324;28;20217;-72
2022/01/22 08:20:21;;;;;;;4.53;3.10;;;6.30;99.90;;;;;;5067325;28;20202;-73
2022/01/22 08:22:48;;;;;;;4.87;3.00;;;6.30;99.90;;;;;;5065702;28;20866;-73
2022/01/22 08:25:14;;;;;;;5.83;3.27;;;6.30;99.90;;;;;;5061753;28;20626;-71
2022/01/22 08:30:35;;;;;;;5.07;3.33;;;6.40;99.90;;;;;;5068506;28;20229;-72
2022/01/22 08:35:52;;;;;;;4.50;2.63;;;6.40;99.90;;;;;;5062270;28;20197;-73
2022/01/22 08:35:55;;;;;;;5.43;3.40;;;6.40;99.90;;;;;;5063770;28;20198;-72
2022/01/22 08:38:27;;;;;;;4.30;3.00;;;6.40;99.90;;;;;;5066404;28;20217;-73
2022/01/22 08:40:55;;;;;;;4.40;3.20;;;6.40;99.90;;;;;;5060916;28;20206;-74
2022/01/22 08:43:23;;;;;;;4.30;2.90;;;6.50;99.90;;;;;;5068287;28;20213;-73
2022/01/22 08:45:50;;;;;;;4.30;3.30;;;6.40;99.90;;;;;;5067494;28;20252;-71
2022/01/22 08:48:19;;;;;;;5.37;3.50;;;6.40;99.90;;;;;;5065348;28;20213;-72
2022/01/22 08:50:46;;;;;;;6.83;3.37;;;6.30;99.90;;;;;;5056156;28;20195;-72
2022/01/22 08:53:33;;;;;;;6.03;3.30;;;6.20;99.90;;;;;;5066686;28;20210;-72
2022/01/22 08:56:02;;;;;;;4.43;3.40;;;6.30;99.90;;;;;;5062342;28;20190;-72
2022/01/22 08:58:29;;;;;;;4.97;3.30;;;6.30;99.90;;;;;;5071960;28;20183;-71
2022/01/22 09:00:55;;;;;;;5.37;3.40;;;6.40;99.90;;;;;;5069961;28;20201;-71
2022/01/22 09:03:23;;;;;;;5.40;3.50;;;6.40;99.90;;;;;;5067098;28;20197;-71
2022/01/22 09:05:50;;;;;;;4.90;3.50;;;6.40;99.90;;;;;;5073204;28;20225;-71
2022/01/22 09:08:17;;;;;;;6.17;3.33;;;6.40;99.90;;;;;;5065983;28;20593;-71
2022/01/22 09:10:44;;;;;;;5.17;3.60;;;6.50;99.90;;;;;;5070071;28;20571;-70
2022/01/22 09:13:11;;;;;;;5.20;3.60;;;6.50;99.90;;;;;;5071790;28;20207;-71
2022/01/22 09:15:38;;;;;;;5.67;3.97;;;6.60;99.90;;;;;;5068020;28;20212;-69
2022/01/22 09:18:06;;;;;;;5.93;3.67;;;6.50;99.90;;;;;;5069835;28;20206;-69
2022/01/22 09:23:07;;;;;;;6.07;3.80;;;6.50;99.90;;;;;;5067962;28;20211;-71
2022/01/22 09:25:34;;;;;;;5.37;3.80;;;6.60;99.90;;;;;;5065410;28;20206;-71
2022/01/22 09:28:02;;;;;;;6.07;3.87;;;6.60;99.90;;;;;;5067859;28;20234;-72
2022/01/22 09:30:30;;;;;;;6.37;4.20;;;6.70;99.90;;;;;;5060791;28;20198;-72
2022/01/22 09:32:56;;;;;;;5.90;4.03;;;6.80;99.90;;;;;;5066458;28;20203;-70
2022/01/22 09:35:23;;;;;;;6.03;4.03;;;6.80;99.90;;;;;;5062247;28;20299;-70
2022/01/22 09:37:50;;;;;;;5.90;4.20;;;6.80;99.90;;;;;;5064799;28;20206;-70
2022/01/22 09:40:16;;;;;;;6.03;3.50;;;6.90;99.90;;;;;;5059917;28;20207;-71
2022/01/22 09:42:43;;;;;;;8.13;3.90;;;7.00;99.90;;;;;;5066021;28;20210;-71
2022/01/22 09:45:12;;;;;;;5.67;3.90;;;7.00;99.90;;;;;;5063425;28;20230;-70
2022/01/22 09:47:44;;;;;;;7.07;3.90;;;7.00;99.90;;;;;;5066950;28;20215;-71
2022/01/22 09:50:11;;;;;;;5.17;3.50;;;7.00;99.90;;;;;;5075182;28;20215;-73
2022/01/22 09:52:43;;;;;;;5.97;4.13;;;6.90;99.90;;;;;;5061914;28;20191;-72
2022/01/22 09:55:10;;;;;;;6.73;4.47;;;6.80;99.90;;;;;;5061168;28;20620;-72
2022/01/22 09:57:37;;;;;;;6.63;4.20;;;6.80;99.90;;;;;;5069142;28;20197;-71
2022/01/22 10:00:08;;;;;;;7.60;4.40;;;6.90;99.90;;;;;;5059969;28;20202;-72
2022/01/22 10:02:46;;;;;;;4.97;3.80;;;7.00;99.90;;;;;;5057999;28;20202;-72
2022/01/22 10:05:34;;;;;;;7.50;3.87;;;7.10;99.90;;;;;;5061191;28;20601;-72
2022/01/22 10:08:22;;;;;;;6.60;3.83;;;7.20;99.90;;;;;;5057559;28;20214;-72
2022/01/22 10:10:49;;;;;;;6.27;4.13;;;7.30;99.90;;;;;;5068509;28;20201;-70
2022/01/22 10:13:37;;;;;;;6.00;4.27;;;7.30;99.90;;;;;;5056973;28;20212;-71
2022/01/22 10:16:25;;;;;;;6.60;4.20;;;7.40;99.90;;;;;;5061807;28;20215;-71
2022/01/22 10:19:07;;;;;;;6.37;4.43;;;7.50;99.90;;;;;;5054981;28;20716;-69
2022/01/22 10:21:35;;;;;;;6.40;4.33;;;7.50;99.90;;;;;;5055834;28;20209;-71
2022/01/22 10:24:39;;;;;;;7.77;4.97;;;7.50;99.90;;;;;;5058994;28;20625;-71
2022/01/22 10:27:20;;;;;;;8.33;4.93;;;7.40;99.90;;;;;;5050220;28;20214;-71
2022/01/22 10:29:49;;;;;;;7.17;5.00;;;7.50;99.90;;;;;;5060450;28;20204;-69
2022/01/22 10:32:25;;;;;;;6.80;4.63;;;7.50;99.90;;;;;;5060979;28;20275;-71
2022/01/22 10:35:23;;;;;;;5.97;4.57;;;7.50;99.90;;;;;;5075225;28;20212;-70
2022/01/22 10:38:11;;;;;;;10.57;4.90;;;7.60;99.90;;;;;;5069208;28;20200;-70
2022/01/22 10:40:40;;;;;;;7.83;5.00;;;7.70;99.90;;;;;;5063418;28;20227;-68
2022/01/22 10:43:33;;;;;;;7.30;5.00;;;7.70;99.90;;;;;;5060453;28;20221;-68
2022/01/22 10:46:10;;;;;;;6.37;4.60;;;7.80;99.90;;;;;;5077445;28;20200;-70
2022/01/22 10:48:43;;;;;;;7.07;4.50;;;7.80;99.90;;;;;;5059848;28;20260;-68
2022/01/22 10:51:12;;;;;;;8.00;5.10;;;7.70;99.90;;;;;;5066853;28;20199;-69
2022/01/22 10:53:39;;;;;;;6.63;4.63;;;7.80;99.90;;;;;;5061273;28;20224;-69
2022/01/22 10:56:07;;;;;;;7.17;4.70;;;7.90;99.90;;;;;;5066754;28;20822;-69
2022/01/22 10:58:34;;;;;;;8.90;5.13;;;7.90;99.90;;;;;;5056233;28;20198;-70
2022/01/22 11:01:05;;;;;;;6.63;4.87;;;7.70;99.90;;;;;;5063982;28;20206;-70
2022/01/22 11:03:32;;;;;;;6.30;4.70;;;7.90;99.90;;;;;;5062883;28;20416;-70
2022/01/22 11:06:04;;;;;;;7.43;4.27;;;8.00;99.90;;;;;;5063118;28;20199;-70
2022/01/22 11:08:30;;;;;;;6.93;4.40;;;8.20;99.90;;;;;;5069792;28;20223;-70
2022/01/22 11:10:57;;;;;;;5.80;3.87;;;8.30;99.90;;;;;;5055435;28;21138;-70
2022/01/22 11:13:24;;;;;;;5.20;3.47;;;8.20;99.90;;;;;;5065715;28;20189;-70
2022/01/22 11:15:51;;;;;;;5.97;3.80;;;8.00;99.90;;;;;;5072670;28;20194;-70
2022/01/22 11:18:19;;;;;;;5.03;3.63;;;8.10;99.90;;;;;;5064990;28;20300;-70
2022/01/22 11:20:50;;;;;;;7.10;3.70;;;8.10;99.90;;;;;;5065364;28;20304;-70
2022/01/22 11:23:18;;;;;;;3.80;2.90;;;8.10;99.90;;;;;;5060383;28;20198;-70
2022/01/22 11:25:45;;;;;;;6.07;3.87;;;8.10;99.90;;;;;;5062476;28;20202;-71
2022/01/22 11:28:13;;;;;;;6.30;3.23;;;8.10;99.90;;;;;;5064973;28;20731;-71
2022/01/22 11:30:45;;;;;;;6.70;4.10;;;8.10;99.90;;;;;;5056460;28;20204;-71
2022/01/22 11:33:17;;;;;;;4.23;3.33;;;8.10;99.90;;;;;;5051713;28;20224;-71
2022/01/22 11:35:51;;;;;;;3.40;2.90;;;8.10;99.90;;;;;;5063418;28;20733;-71
2022/01/22 11:38:36;;;;;;;4.83;2.90;;;8.20;99.90;;;;;;5065192;28;20215;-71
2022/01/22 11:41:06;;;;;;;3.80;2.70;;;8.20;99.90;;;;;;5061489;28;20209;-70
2022/01/22 11:46:53;;;;;;;4.57;2.90;;;8.20;99.90;;;;;;5063828;28;20494;-71
2022/01/22 11:49:28;;;;;;;3.63;2.43;;;8.20;99.90;;;;;;5054947;28;20208;-71
2022/01/22 11:52:07;;;;;;;3.40;2.93;;;8.20;99.90;;;;;;5061124;28;20204;-71
2022/01/22 11:55:00;;;;;;;4.53;3.07;;;8.20;99.90;;;;;;5063884;28;20221;-71
2022/01/22 11:57:31;;;;;;;4.37;2.87;;;8.20;99.90;;;;;;5066261;28;20208;-71
2022/01/22 12:00:19;;;;;;;3.63;2.77;;;8.30;99.90;;;;;;5062846;28;20205;-71
2022/01/22 12:03:08;;;;;;;4.30;2.60;;;8.20;99.90;;;;;;5060316;28;20205;-71
2022/01/22 12:05:54;;;;;;;5.13;3.00;;;8.10;99.90;;;;;;5058939;28;20206;-71
2022/01/22 12:08:22;;;;;;;3.97;2.80;;;8.20;99.90;;;;;;5063505;28;20227;-71
2022/01/22 12:16:41;;;;;;;6.33;3.00;;;8.30;99.90;;;;;;5067111;28;20685;-71
2022/01/22 12:19:46;;;;;;;3.87;2.63;;;8.20;99.90;;;;;;5060655;28;20586;-71
2022/01/22 12:22:47;;;;;;;3.80;2.63;;;8.10;99.90;;;;;;5063853;28;20196;-71
2022/01/22 12:25:16;;;;;;;4.00;2.60;;;8.10;99.90;;;;;;5064490;28;20215;-71
2022/01/22 12:27:48;;;;;;;5.87;2.70;;;8.00;99.90;;;;;;5068486;28;20227;-71
2022/01/22 12:30:38;;;;;;;3.30;2.20;;;8.10;99.90;;;;;;5061678;28;20660;-71
2022/01/22 12:33:09;;;;;;;2.37;1.90;;;8.30;99.90;;;;;;5058281;28;20233;-71
2022/01/22 12:35:41;;;;;;;2.77;2.10;;;8.20;99.90;;;;;;5066602;28;20200;-70
2022/01/22 12:38:28;;;;;;;1.97;1.73;;;7.90;99.90;;;;;;5061767;28;20198;-71
2022/01/22 12:41:13;;;;;;;2.67;1.83;;;7.90;99.90;;;;;;5062776;28;20221;-71
2022/01/22 12:43:43;;;;;;;4.87;2.50;;;8.10;99.90;;;;;;5064054;28;20485;-71
2022/01/22 12:46:10;;;;;;;3.23;2.30;;;8.10;99.90;;;;;;5061903;28;20201;-71
2022/01/22 12:48:42;;;;;;;3.33;2.33;;;8.10;99.90;;;;;;5065287;28;20220;-71
2022/01/22 12:51:09;;;;;;;3.90;2.33;;;8.00;99.90;;;;;;5057677;28;20201;-71
2022/01/22 12:53:38;;;;;;;3.10;2.30;;;8.10;99.90;;;;;;5063986;28;20229;-71
2022/01/22 12:58:39;;;;;;;4.07;2.20;;;7.80;99.90;;;;;;5060300;28;20622;-71
2022/01/22 13:01:15;;;;;;;2.87;2.30;;;7.80;99.90;;;;;;5060427;28;20209;-71
2022/01/22 13:03:45;;;;;;;3.50;2.30;;;7.80;99.90;;;;;;5063200;28;20219;-71
2022/01/22 13:06:11;;;;;;;3.77;2.57;;;8.00;99.90;;;;;;5067875;28;20626;-72
2022/01/22 13:08:38;;;;;;;4.20;2.67;;;8.10;99.90;;;;;;5061772;28;20649;-71
2022/01/22 13:11:10;;;;;;;5.40;2.43;;;8.20;99.90;;;;;;5056984;28;20210;-71
2022/01/22 13:13:39;;;;;;;3.97;2.40;;;8.20;99.90;;;;;;5059250;28;20218;-70
2022/01/22 13:16:11;;;;;;;4.13;2.37;;;8.30;99.90;;;;;;5063039;28;20201;-70
2022/01/22 13:18:57;;;;;;;3.20;2.40;;;8.40;99.90;;;;;;5080603;28;20321;-68
2022/01/22 13:21:27;;;;;;;4.17;2.40;;;8.30;99.90;;;;;;5062004;28;20199;-69
2022/01/22 13:24:11;;;;;;;4.37;2.50;;;8.50;99.90;;;;;;5063723;28;20228;-72
2022/01/22 13:26:53;;;;;;;3.73;2.43;;;8.50;99.90;;;;;;5058888;28;20198;-72
2022/01/22 13:29:43;;;;;;;3.37;2.37;;;8.40;99.90;;;;;;5066980;28;20218;-72
2022/01/22 13:33:05;;;;;;;3.57;2.73;;;8.40;99.90;;;;;;5058813;28;20201;-71
2022/01/22 13:49:04;;;;;;;3.73;2.20;;;8.90;99.90;;;;;;5072928;28;20210;-71
2022/01/22 13:51:32;;;;;;;3.10;2.40;;;8.90;99.90;;;;;;5065443;28;20199;-72
2022/01/22 13:54:01;;;;;;;4.27;2.80;;;8.90;99.90;;;;;;5066752;28;20578;-72
2022/01/22 13:56:55;;;;;;;3.40;2.43;;;8.90;99.90;;;;;;5069190;28;20215;-71
2022/01/22 13:59:23;;;;;;;3.83;2.30;;;9.00;99.90;;;;;;5066857;28;20670;-71
2022/01/22 14:02:09;;;;;;;3.40;2.40;;;9.10;99.90;;;;;;5068831;28;20226;-72
2022/01/22 14:05:00;;;;;;;2.30;1.90;;;9.10;99.90;;;;;;5070293;28;20607;-72
2022/01/22 14:07:35;;;;;;;2.77;2.10;;;9.10;99.90;;;;;;5059499;28;20202;-72
2022/01/22 14:10:15;;;;;;;3.63;2.10;;;9.00;99.90;;;;;;5054024;28;20211;-72
2022/01/22 14:12:48;;;;;;;2.90;2.17;;;9.00;99.90;;;;;;5069936;28;20210;-72
2022/01/22 14:15:35;;;;;;;2.40;2.13;;;9.00;99.90;;;;;;5073655;28;20226;-72
2022/01/22 14:18:21;;;;;;;3.70;2.20;;;8.90;99.90;;;;;;5069226;28;20688;-73
2022/01/22 14:20:55;;;;;;;2.63;2.07;;;8.90;99.90;;;;;;5065344;28;20194;-71
2022/01/22 14:23:24;;;;;;;4.50;2.40;;;8.80;99.90;;;;;;5069427;28;20198;-72
2022/01/22 14:26:04;;;;;;;2.77;2.10;;;8.80;99.90;;;;;;5068391;28;20200;-70
2022/01/22 14:28:43;;;;;;;2.93;2.00;;;8.80;99.90;;;;;;5060457;28;20220;-70
2022/01/22 14:31:32;;;;;;;2.67;1.80;;;8.80;99.90;;;;;;5056664;28;20210;-71
2022/01/22 14:34:05;;;;;;;3.83;1.90;;;8.70;99.90;;;;;;5063234;28;20306;-73
2022/01/22 14:36:40;;;;;;;2.73;1.90;;;8.70;99.90;;;;;;5062494;28;20197;-71
2022/01/22 14:44:46;;;;;;;2.70;1.93;;;8.70;99.90;;;;;;5070286;28;20697;-71
2022/01/22 14:47:14;;;;;;;3.23;1.70;;;8.70;99.90;;;;;;5068332;28;20325;-71
2022/01/22 14:49:46;;;;;;;3.17;1.83;;;8.60;99.90;;;;;;5053711;28;20218;-71
2022/01/22 14:52:17;;;;;;;2.60;1.73;;;8.60;99.90;;;;;;5069075;28;20201;-71
2022/01/22 14:54:48;;;;;;;2.27;1.80;;;8.50;99.90;;;;;;5069978;28;20218;-71
2022/01/22 14:57:20;;;;;;;2.93;1.67;;;8.70;99.90;;;;;;5069318;28;20205;-71
2022/01/22 14:59:48;;;;;;;2.20;1.90;;;8.70;99.90;;;;;;5069457;28;20204;-71
2022/01/22 15:02:15;;;;;;;2.83;2.00;;;8.50;99.90;;;;;;5067313;28;20676;-71
2022/01/22 15:04:43;;;;;;;2.83;2.20;;;8.50;99.90;;;;;;5069699;28;20220;-71
2022/01/22 15:07:12;;;;;;;4.93;2.20;;;8.50;99.90;;;;;;5062650;28;20206;-71
2022/01/22 15:09:41;;;;;;;3.30;2.00;;;8.30;99.90;;;;;;5069442;28;20221;-71
2022/01/22 15:12:09;;;;;;;3.13;2.10;;;8.30;99.90;;;;;;5069541;28;20208;-71
2022/01/22 15:14:37;;;;;;;3.20;2.10;;;8.20;99.90;;;;;;5064056;28;20215;-71
2022/01/22 15:19:37;;;;;;;3.47;2.70;;;8.10;99.90;;;;;;5066050;28;20201;-71
2022/01/22 15:22:08;;;;;;;3.43;2.43;;;7.90;99.90;;;;;;5070276;28;20196;-71
2022/01/22 15:24:35;;;;;;;2.80;2.30;;;7.80;99.90;;;;;;5069860;28;20242;-71